sensor_id;sensor_type;location;lat;lon;timestamp;temperature;humidity
32107;DHT22;18622;51.998;10.440;2023-07-29T03:31:49;20.70;99.90
32107;DHT22;18622;51.998;10.440;2023-07-29T03:34:17;20.70;99.90
32107;DHT22;18622;51.998;10.440;2023-07-29T03:36:45;20.70;99.90
32107;DHT22;18622;51.998;10.440;2023-07-29T03:39:14;20.80;99.90
32107;DHT22;18622;51.998;10.440;2023-07-29T03:41:42;20.80;99.90
32107;DHT22;18622;51.998;10.440;2023-07-29T03:44:10;20.80;99.90
32107;DHT22;18622;51.998;10.440;2023-07-29T03:46:38;20.80;99.90
32107;DHT22;18622;51.998;10.440;2023-07-29T03:49:05;20.70;99.90
32107;DHT22;18622;51.998;10.440;2023-07-29T03:51:33;20.70;99.90
32107;DHT22;18622;51.998;10.440;2023-07-29T03:54:01;20.60;99.90
32107;DHT22;18622;51.998;10.440;2023-07-29T03:56:29;20.60;99.90
32107;DHT22;18622;51.998;10.440;2023-07-29T03:59:04;20.60;99.90
32107;DHT22;18622;51.998;10.440;2023-07-29T04:01:32;20.60;99.90
32107;DHT22;18622;51.998;10.440;2023-07-29T04:04:00;20.70;99.90
32107;DHT22;18622;51.998;10.440;2023-07-29T04:06:28;20.70;99.90
32107;DHT22;18622;51.998;10.440;2023-07-29T04:08:55;20.70;99.90
32107;DHT22;18622;51.998;10.440;2023-07-29T04:11:23;20.70;99.90
32107;DHT22;18622;51.998;10.440;2023-07-29T04:13:52;20.70;99.90
32107;DHT22;18622;51.998;10.440;2023-07-29T04:16:20;20.70;99.90
32107;DHT22;18622;51.998;10.440;2023-07-29T04:18:47;20.80;99.90
32107;DHT22;18622;51.998;10.440;2023-07-29T04:21:15;20.90;99.90
32107;DHT22;18622;51.998;10.440;2023-07-29T04:23:43;20.90;99.90
32107;DHT22;18622;51.998;10.440;2023-07-29T04:26:11;21.00;99.90
32107;DHT22;18622;51.998;10.440;2023-07-29T04:28:39;21.00;99.90
32107;DHT22;18622;51.998;10.440;2023-07-29T04:31:06;21.00;99.90
32107;DHT22;18622;51.998;10.440;2023-07-29T04:33:34;21.00;99.90
32107;DHT22;18622;51.998;10.440;2023-07-29T04:36:02;21.10;99.90
32107;DHT22;18622;51.998;10.440;2023-07-29T04:38:33;21.00;99.90
32107;DHT22;18622;51.998;10.440;2023-07-29T04:41:01;21.10;99.90
32107;DHT22;18622;51.998;10.440;2023-07-29T04:43:31;21.10;99.90
32107;DHT22;18622;51.998;10.440;2023-07-29T04:45:59;21.20;99.90
32107;DHT22;18622;51.998;10.440;2023-07-29T04:48:27;21.20;99.90
32107;DHT22;18622;51.998;10.440;2023-07-29T04:50:55;21.30;99.90
32107;DHT22;18622;51.998;10.440;2023-07-29T04:53:22;21.30;99.90
32107;DHT22;18622;51.998;10.440;2023-07-29T04:55:50;21.40;99.90
32107;DHT22;18622;51.998;10.440;2023-07-29T04:58:18;21.50;99.90
32107;DHT22;18622;51.998;10.440;2023-07-29T05:00:49;21.50;99.90
32107;DHT22;18622;51.998;10.440;2023-07-29T05:03:16;21.60;99.90
32107;DHT22;18622;51.998;10.440;2023-07-29T05:05:44;21.70;99.90
32107;DHT22;18622;51.998;10.440;2023-07-29T05:08:12;21.90;99.90
32107;DHT22;18622;51.998;10.440;2023-07-29T05:10:40;22.00;99.90
32107;DHT22;18622;51.998;10.440;2023-07-29T05:13:07;22.10;99.90
32107;DHT22;18622;51.998;10.440;2023-07-29T05:15:35;22.10;99.90
32107;DHT22;18622;51.998;10.440;2023-07-29T05:18:03;22.30;99.90
32107;DHT22;18622;51.998;10.440;2023-07-29T05:20:31;22.50;99.90
32107;DHT22;18622;51.998;10.440;2023-07-29T05:22:58;22.70;99.90
32107;DHT22;18622;51.998;10.440;2023-07-29T05:25:27;22.90;99.90
32107;DHT22;18622;51.998;10.440;2023-07-29T05:27:55;23.00;99.90
32107;DHT22;18622;51.998;10.440;2023-07-29T05:30:23;22.90;99.90
32107;DHT22;18622;51.998;10.440;2023-07-29T05:32:53;22.80;99.90
32107;DHT22;18622;51.998;10.440;2023-07-29T05:35:21;22.60;99.90
32107;DHT22;18622;51.998;10.440;2023-07-29T05:37:48;22.30;99.90
32107;DHT22;18622;51.998;10.440;2023-07-29T05:40:16;21.80;99.90
32107;DHT22;18622;51.998;10.440;2023-07-29T05:42:45;21.30;99.90
32107;DHT22;18622;51.998;10.440;2023-07-29T05:45:14;20.90;99.90
32107;DHT22;18622;51.998;10.440;2023-07-29T05:47:42;20.60;99.90
32107;DHT22;18622;51.998;10.440;2023-07-29T05:50:10;20.40;99.90
32107;DHT22;18622;51.998;10.440;2023-07-29T05:52:38;20.20;99.90
32107;DHT22;18622;51.998;10.440;2023-07-29T05:55:06;20.10;99.90
32107;DHT22;18622;51.998;10.440;2023-07-29T05:57:34;20.10;99.90
32107;DHT22;18622;51.998;10.440;2023-07-29T06:00:02;20.10;99.90
32107;DHT22;18622;51.998;10.440;2023-07-29T06:02:29;20.00;99.90
32107;DHT22;18622;51.998;10.440;2023-07-29T06:04:57;20.00;99.90
32107;DHT22;18622;51.998;10.440;2023-07-29T06:07:25;20.00;99.90
32107;DHT22;18622;51.998;10.440;2023-07-29T06:09:55;20.00;99.90
32107;DHT22;18622;51.998;10.440;2023-07-29T06:12:23;20.00;99.90
32107;DHT22;18622;51.998;10.440;2023-07-29T06:14:50;20.10;99.90
32107;DHT22;18622;51.998;10.440;2023-07-29T06:17:18;20.00;99.90
32107;DHT22;18622;51.998;10.440;2023-07-29T06:19:46;20.00;99.90
32107;DHT22;18622;51.998;10.440;2023-07-29T06:22:14;20.00;99.90
32107;DHT22;18622;51.998;10.440;2023-07-29T06:24:42;20.00;99.90
32107;DHT22;18622;51.998;10.440;2023-07-29T06:27:09;20.00;99.90
32107;DHT22;18622;51.998;10.440;2023-07-29T06:29:37;19.90;99.90
32107;DHT22;18622;51.998;10.440;2023-07-29T06:32:05;19.90;99.90
32107;DHT22;18622;51.998;10.440;2023-07-29T06:34:33;19.70;99.90
32107;DHT22;18622;51.998;10.440;2023-07-29T06:37:01;19.70;99.90
32107;DHT22;18622;51.998;10.440;2023-07-29T06:39:29;19.60;99.90
32107;DHT22;18622;51.998;10.440;2023-07-29T06:41:57;19.60;99.90
32107;DHT22;18622;51.998;10.440;2023-07-29T06:44:24;19.60;99.90
32107;DHT22;18622;51.998;10.440;2023-07-29T06:46:52;19.70;99.90
32107;DHT22;18622;51.998;10.440;2023-07-29T06:49:20;19.80;99.90
32107;DHT22;18622;51.998;10.440;2023-07-29T06:51:48;19.80;99.90
32107;DHT22;18622;51.998;10.440;2023-07-29T06:54:16;19.90;99.90
32107;DHT22;18622;51.998;10.440;2023-07-29T06:56:44;20.00;99.90
32107;DHT22;18622;51.998;10.440;2023-07-29T06:59:12;20.10;99.90
32107;DHT22;18622;51.998;10.440;2023-07-29T07:01:40;20.40;99.90
32107;DHT22;18622;51.998;10.440;2023-07-29T07:04:07;20.60;99.90
32107;DHT22;18622;51.998;10.440;2023-07-29T07:06:35;20.90;99.90
32107;DHT22;18622;51.998;10.440;2023-07-29T07:09:03;21.00;99.90
32107;DHT22;18622;51.998;10.440;2023-07-29T07:11:31;21.10;99.90
32107;DHT22;18622;51.998;10.440;2023-07-29T07:13:59;21.10;99.90
32107;DHT22;18622;51.998;10.440;2023-07-29T07:16:27;21.20;99.90
32107;DHT22;18622;51.998;10.440;2023-07-29T07:18:57;21.20;99.90
32107;DHT22;18622;51.998;10.440;2023-07-29T07:21:24;21.30;99.90
32107;DHT22;18622;51.998;10.440;2023-07-29T07:23:52;21.20;99.90
32107;DHT22;18622;51.998;10.440;2023-07-29T07:26:20;21.30;99.90
32107;DHT22;18622;51.998;10.440;2023-07-29T07:28:48;21.40;99.90
32107;DHT22;18622;51.998;10.440;2023-07-29T07:31:15;21.60;99.90
32107;DHT22;18622;51.998;10.440;2023-07-29T07:33:44;21.70;99.90
32107;DHT22;18622;51.998;10.440;2023-07-29T07:36:11;21.90;99.90
32107;DHT22;18622;51.998;10.440;2023-07-29T07:38:39;22.00;99.90
32107;DHT22;18622;51.998;10.440;2023-07-29T07:41:07;22.30;99.90
32107;DHT22;18622;51.998;10.440;2023-07-29T07:43:35;22.50;99.90
32107;DHT22;18622;51.998;10.440;2023-07-29T07:46:03;22.70;99.90
32107;DHT22;18622;51.998;10.440;2023-07-29T07:48:30;22.90;99.90
32107;DHT22;18622;51.998;10.440;2023-07-29T07:50:59;22.90;99.90
32107;DHT22;18622;51.998;10.440;2023-07-29T07:53:27;22.80;99.90
32107;DHT22;18622;51.998;10.440;2023-07-29T07:55:55;22.70;99.90
32107;DHT22;18622;51.998;10.440;2023-07-29T07:58:23;22.60;99.90
32107;DHT22;18622;51.998;10.440;2023-07-29T08:00:50;22.50;99.90
32107;DHT22;18622;51.998;10.440;2023-07-29T08:03:18;22.50;99.90
32107;DHT22;18622;51.998;10.440;2023-07-29T08:05:46;22.30;99.90
32107;DHT22;18622;51.998;10.440;2023-07-29T08:08:14;22.30;99.90
32107;DHT22;18622;51.998;10.440;2023-07-29T08:10:42;22.40;99.90
32107;DHT22;18622;51.998;10.440;2023-07-29T08:13:10;22.50;99.90
32107;DHT22;18622;51.998;10.440;2023-07-29T08:15:38;22.60;99.90
32107;DHT22;18622;51.998;10.440;2023-07-29T08:18:05;22.70;99.90
32107;DHT22;18622;51.998;10.440;2023-07-29T08:20:33;22.90;99.90
32107;DHT22;18622;51.998;10.440;2023-07-29T08:23:01;22.90;99.90
32107;DHT22;18622;51.998;10.440;2023-07-29T08:25:29;23.00;99.90
32107;DHT22;18622;51.998;10.440;2023-07-29T08:27:57;23.10;99.90
32107;DHT22;18622;51.998;10.440;2023-07-29T08:30:24;23.10;99.90
32107;DHT22;18622;51.998;10.440;2023-07-29T08:32:52;23.10;99.90
32107;DHT22;18622;51.998;10.440;2023-07-29T08:35:20;23.00;99.90
32107;DHT22;18622;51.998;10.440;2023-07-29T08:37:47;23.00;99.90
32107;DHT22;18622;51.998;10.440;2023-07-29T08:40:15;22.90;99.90
32107;DHT22;18622;51.998;10.440;2023-07-29T08:42:45;22.70;99.90
32107;DHT22;18622;51.998;10.440;2023-07-29T08:45:14;22.50;99.90
32107;DHT22;18622;51.998;10.440;2023-07-29T08:47:42;22.50;99.90
32107;DHT22;18622;51.998;10.440;2023-07-29T08:50:10;22.40;99.90
32107;DHT22;18622;51.998;10.440;2023-07-29T08:52:38;22.40;99.90
32107;DHT22;18622;51.998;10.440;2023-07-29T08:55:06;22.30;99.90
32107;DHT22;18622;51.998;10.440;2023-07-29T08:57:34;22.10;99.90
32107;DHT22;18622;51.998;10.440;2023-07-29T09:00:02;22.00;99.90
32107;DHT22;18622;51.998;10.440;2023-07-29T09:02:30;22.00;99.90
32107;DHT22;18622;51.998;10.440;2023-07-29T09:04:58;22.10;99.90
32107;DHT22;18622;51.998;10.440;2023-07-29T09:07:26;22.10;99.90
32107;DHT22;18622;51.998;10.440;2023-07-29T09:09:54;22.30;99.90
32107;DHT22;18622;51.998;10.440;2023-07-29T09:12:22;22.50;99.90
32107;DHT22;18622;51.998;10.440;2023-07-29T09:14:53;22.60;99.90
32107;DHT22;18622;51.998;10.440;2023-07-29T09:17:34;22.70;99.90
32107;DHT22;18622;51.998;10.440;2023-07-29T09:20:01;22.80;99.90
32107;DHT22;18622;51.998;10.440;2023-07-29T09:22:30;22.90;99.90
32107;DHT22;18622;51.998;10.440;2023-07-29T09:24:58;23.10;99.90
32107;DHT22;18622;51.998;10.440;2023-07-29T09:27:27;23.20;99.90
32107;DHT22;18622;51.998;10.440;2023-07-29T09:29:56;23.20;99.90
32107;DHT22;18622;51.998;10.440;2023-07-29T09:32:25;23.10;99.90
32107;DHT22;18622;51.998;10.440;2023-07-29T09:34:52;22.90;99.90
32107;DHT22;18622;51.998;10.440;2023-07-29T09:37:23;22.50;99.90
32107;DHT22;18622;51.998;10.440;2023-07-29T09:39:51;22.20;99.90
32107;DHT22;18622;51.998;10.440;2023-07-29T09:42:21;21.90;99.90
32107;DHT22;18622;51.998;10.440;2023-07-29T09:44:50;21.50;99.90
32107;DHT22;18622;51.998;10.440;2023-07-29T09:47:25;21.20;99.90
32107;DHT22;18622;51.998;10.440;2023-07-29T09:49:53;20.80;99.90
32107;DHT22;18622;51.998;10.440;2023-07-29T09:52:22;20.70;99.90
32107;DHT22;18622;51.998;10.440;2023-07-29T09:54:51;20.70;99.90
32107;DHT22;18622;51.998;10.440;2023-07-29T09:57:19;21.00;99.90
32107;DHT22;18622;51.998;10.440;2023-07-29T09:59:56;21.30;99.90
32107;DHT22;18622;51.998;10.440;2023-07-29T10:02:24;21.60;99.90
32107;DHT22;18622;51.998;10.440;2023-07-29T10:04:55;21.90;99.90
32107;DHT22;18622;51.998;10.440;2023-07-29T10:07:24;22.40;99.90
32107;DHT22;18622;51.998;10.440;2023-07-29T10:09:52;23.00;99.90
32107;DHT22;18622;51.998;10.440;2023-07-29T10:12:22;23.70;99.90
32107;DHT22;18622;51.998;10.440;2023-07-29T10:14:50;24.40;99.90
32107;DHT22;18622;51.998;10.440;2023-07-29T10:17:19;24.90;99.90
32107;DHT22;18622;51.998;10.440;2023-07-29T10:19:49;25.40;99.90
32107;DHT22;18622;51.998;10.440;2023-07-29T10:22:20;25.60;99.90
32107;DHT22;18622;51.998;10.440;2023-07-29T10:24:49;25.50;99.90
32107;DHT22;18622;51.998;10.440;2023-07-29T10:27:18;25.50;99.90
32107;DHT22;18622;51.998;10.440;2023-07-29T10:29:46;25.30;99.90
32107;DHT22;18622;51.998;10.440;2023-07-29T10:32:15;25.10;99.90
32107;DHT22;18622;51.998;10.440;2023-07-29T10:34:43;24.80;99.90
32107;DHT22;18622;51.998;10.440;2023-07-29T10:37:11;24.50;99.90
32107;DHT22;18622;51.998;10.440;2023-07-29T10:39:40;24.50;99.90
32107;DHT22;18622;51.998;10.440;2023-07-29T10:42:09;25.20;99.90
32107;DHT22;18622;51.998;10.440;2023-07-29T10:47:16;27.70;99.90
32107;DHT22;18622;51.998;10.440;2023-07-29T10:49:46;28.30;99.90
32107;DHT22;18622;51.998;10.440;2023-07-29T10:52:40;28.60;99.20
32107;DHT22;18622;51.998;10.440;2023-07-29T10:54:57;28.60;98.50
32107;DHT22;18622;51.998;10.440;2023-07-29T10:57:33;28.30;98.40
32107;DHT22;18622;51.998;10.440;2023-07-29T11:00:02;28.30;99.50
32107;DHT22;18622;51.998;10.440;2023-07-29T11:02:38;28.70;98.80
32107;DHT22;18622;51.998;10.440;2023-07-29T11:05:15;29.50;96.80
32107;DHT22;18622;51.998;10.440;2023-07-29T11:07:48;29.70;95.20
32107;DHT22;18622;51.998;10.440;2023-07-29T11:10:16;29.20;95.00
32107;DHT22;18622;51.998;10.440;2023-07-29T11:12:49;28.30;95.40
32107;DHT22;18622;51.998;10.440;2023-07-29T11:15:25;27.40;96.80
32107;DHT22;18622;51.998;10.440;2023-07-29T11:18:00;26.30;97.30
32107;DHT22;18622;51.998;10.440;2023-07-29T11:20:33;24.90;99.40
32107;DHT22;18622;51.998;10.440;2023-07-29T11:23:02;23.70;99.90
32107;DHT22;18622;51.998;10.440;2023-07-29T11:25:30;23.00;99.90
32107;DHT22;18622;51.998;10.440;2023-07-29T11:27:59;22.60;99.90
32107;DHT22;18622;51.998;10.440;2023-07-29T11:30:27;22.20;99.90
32107;DHT22;18622;51.998;10.440;2023-07-29T11:32:56;21.80;99.90
32107;DHT22;18622;51.998;10.440;2023-07-29T11:35:25;21.70;99.90
32107;DHT22;18622;51.998;10.440;2023-07-29T11:37:54;21.90;99.90
32107;DHT22;18622;51.998;10.440;2023-07-29T11:40:24;22.60;99.90
32107;DHT22;18622;51.998;10.440;2023-07-29T11:42:53;23.60;99.90
32107;DHT22;18622;51.998;10.440;2023-07-29T11:45:22;24.50;99.90
32107;DHT22;18622;51.998;10.440;2023-07-29T11:47:49;25.50;99.90
32107;DHT22;18622;51.998;10.440;2023-07-29T11:50:17;26.50;99.90
32107;DHT22;18622;51.998;10.440;2023-07-29T11:52:46;27.30;99.70
32107;DHT22;18622;51.998;10.440;2023-07-29T11:55:14;27.70;98.80
32107;DHT22;18622;51.998;10.440;2023-07-29T11:57:43;28.00;97.90
32107;DHT22;18622;51.998;10.440;2023-07-29T12:00:11;28.50;97.20
32107;DHT22;18622;51.998;10.440;2023-07-29T12:02:42;28.90;96.20
32107;DHT22;18622;51.998;10.440;2023-07-29T12:05:14;29.30;95.00
32107;DHT22;18622;51.998;10.440;2023-07-29T12:07:43;29.50;94.70
32107;DHT22;18622;51.998;10.440;2023-07-29T12:10:12;29.90;93.90
32107;DHT22;18622;51.998;10.440;2023-07-29T12:12:46;30.20;92.80
32107;DHT22;18622;51.998;10.440;2023-07-29T12:15:28;30.10;91.30
32107;DHT22;18622;51.998;10.440;2023-07-29T12:17:57;29.40;91.20
32107;DHT22;18622;51.998;10.440;2023-07-29T12:20:26;28.50;92.50
32107;DHT22;18622;51.998;10.440;2023-07-29T12:22:58;27.80;93.70
32107;DHT22;18622;51.998;10.440;2023-07-29T12:25:28;27.60;95.70
32107;DHT22;18622;51.998;10.440;2023-07-29T12:27:56;28.30;94.50
32107;DHT22;18622;51.998;10.440;2023-07-29T12:30:24;29.10;93.30
32107;DHT22;18622;51.998;10.440;2023-07-29T12:32:52;29.90;92.60
32107;DHT22;18622;51.998;10.440;2023-07-29T12:35:20;30.60;90.20
32107;DHT22;18622;51.998;10.440;2023-07-29T12:38:03;31.10;90.50
32107;DHT22;18622;51.998;10.440;2023-07-29T12:40:28;31.80;84.90
32107;DHT22;18622;51.998;10.440;2023-07-29T12:42:56;32.10;80.20
32107;DHT22;18622;51.998;10.440;2023-07-29T12:45:24;32.00;79.30
32107;DHT22;18622;51.998;10.440;2023-07-29T12:47:53;32.10;72.40
32107;DHT22;18622;51.998;10.440;2023-07-29T12:50:21;32.00;68.20
32107;DHT22;18622;51.998;10.440;2023-07-29T12:52:49;32.30;71.80
32107;DHT22;18622;51.998;10.440;2023-07-29T12:55:17;32.70;66.80
32107;DHT22;18622;51.998;10.440;2023-07-29T12:57:44;32.60;62.50
32107;DHT22;18622;51.998;10.440;2023-07-29T13:00:12;32.70;64.60
32107;DHT22;18622;51.998;10.440;2023-07-29T13:02:40;33.30;61.70
32107;DHT22;18622;51.998;10.440;2023-07-29T13:05:10;33.60;59.80
32107;DHT22;18622;51.998;10.440;2023-07-29T13:07:42;33.50;60.70
32107;DHT22;18622;51.998;10.440;2023-07-29T13:10:10;33.60;58.00
32107;DHT22;18622;51.998;10.440;2023-07-29T13:12:39;33.60;54.60
32107;DHT22;18622;51.998;10.440;2023-07-29T13:15:07;33.30;56.10
32107;DHT22;18622;51.998;10.440;2023-07-29T13:17:35;33.40;57.30
32107;DHT22;18622;51.998;10.440;2023-07-29T13:20:05;33.80;55.60
32107;DHT22;18622;51.998;10.440;2023-07-29T13:22:33;33.50;52.60
32107;DHT22;18622;51.998;10.440;2023-07-29T13:25:01;32.60;54.10
32107;DHT22;18622;51.998;10.440;2023-07-29T13:27:28;31.80;56.10
32107;DHT22;18622;51.998;10.440;2023-07-29T13:29:56;31.50;57.60
32107;DHT22;18622;51.998;10.440;2023-07-29T13:32:24;31.80;56.50
32107;DHT22;18622;51.998;10.440;2023-07-29T13:34:52;32.00;55.20
32107;DHT22;18622;51.998;10.440;2023-07-29T13:37:20;32.40;54.60
32107;DHT22;18622;51.998;10.440;2023-07-29T13:39:47;32.80;54.00
32107;DHT22;18622;51.998;10.440;2023-07-29T13:42:15;33.30;53.70
32107;DHT22;18622;51.998;10.440;2023-07-29T13:44:43;33.70;52.60
32107;DHT22;18622;51.998;10.440;2023-07-29T13:47:11;33.80;52.20
32107;DHT22;18622;51.998;10.440;2023-07-29T13:49:39;34.00;52.40
32107;DHT22;18622;51.998;10.440;2023-07-29T13:52:06;34.10;51.20
32107;DHT22;18622;51.998;10.440;2023-07-29T13:54:34;34.20;51.80
32107;DHT22;18622;51.998;10.440;2023-07-29T13:57:02;34.50;51.30
32107;DHT22;18622;51.998;10.440;2023-07-29T13:59:30;34.70;51.20
32107;DHT22;18622;51.998;10.440;2023-07-29T14:01:58;34.50;49.20
32107;DHT22;18622;51.998;10.440;2023-07-29T14:04:26;33.70;52.10
32107;DHT22;18622;51.998;10.440;2023-07-29T14:06:54;33.70;52.30
32107;DHT22;18622;51.998;10.440;2023-07-29T14:09:21;33.80;49.80
32107;DHT22;18622;51.998;10.440;2023-07-29T14:11:49;33.80;51.40
32107;DHT22;18622;51.998;10.440;2023-07-29T14:14:17;33.70;50.70
32107;DHT22;18622;51.998;10.440;2023-07-29T14:16:45;33.20;51.50
32107;DHT22;18622;51.998;10.440;2023-07-29T14:19:13;32.50;52.30
32107;DHT22;18622;51.998;10.440;2023-07-29T14:21:41;32.60;54.40
32107;DHT22;18622;51.998;10.440;2023-07-29T14:24:09;33.10;53.10
32107;DHT22;18622;51.998;10.440;2023-07-29T14:26:37;33.40;53.00
32107;DHT22;18622;51.998;10.440;2023-07-29T14:29:04;33.60;53.30
32107;DHT22;18622;51.998;10.440;2023-07-29T14:31:32;34.00;52.60
32107;DHT22;18622;51.998;10.440;2023-07-29T14:34:00;34.10;52.60
32107;DHT22;18622;51.998;10.440;2023-07-29T14:36:28;34.20;52.90
32107;DHT22;18622;51.998;10.440;2023-07-29T14:38:56;34.40;51.40
32107;DHT22;18622;51.998;10.440;2023-07-29T14:41:24;34.50;50.70
32107;DHT22;18622;51.998;10.440;2023-07-29T14:43:51;34.60;50.60
32107;DHT22;18622;51.998;10.440;2023-07-29T14:46:19;34.60;49.50
32107;DHT22;18622;51.998;10.440;2023-07-29T14:48:47;34.70;49.80
32107;DHT22;18622;51.998;10.440;2023-07-29T14:51:15;34.50;49.50
32107;DHT22;18622;51.998;10.440;2023-07-29T14:53:43;34.00;49.20
32107;DHT22;18622;51.998;10.440;2023-07-29T14:56:10;33.80;50.60
32107;DHT22;18622;51.998;10.440;2023-07-29T14:58:40;33.50;51.50
32107;DHT22;18622;51.998;10.440;2023-07-29T15:01:08;33.20;51.60
32107;DHT22;18622;51.998;10.440;2023-07-29T15:03:36;33.00;51.70
32107;DHT22;18622;51.998;10.440;2023-07-29T15:06:03;33.10;51.40
32107;DHT22;18622;51.998;10.440;2023-07-29T15:08:31;32.60;50.10
32107;DHT22;18622;51.998;10.440;2023-07-29T15:10:59;32.30;52.60
32107;DHT22;18622;51.998;10.440;2023-07-29T15:13:27;32.30;51.50
32107;DHT22;18622;51.998;10.440;2023-07-29T15:15:54;31.80;51.70
32107;DHT22;18622;51.998;10.440;2023-07-29T15:18:22;31.40;52.90
32107;DHT22;18622;51.998;10.440;2023-07-29T15:20:50;31.20;53.10
32107;DHT22;18622;51.998;10.440;2023-07-29T15:23:18;30.90;53.10
32107;DHT22;18622;51.998;10.440;2023-07-29T15:25:46;30.30;54.60
32107;DHT22;18622;51.998;10.440;2023-07-29T15:28:15;29.80;56.00
32107;DHT22;18622;51.998;10.440;2023-07-29T15:30:43;29.40;56.50
32107;DHT22;18622;51.998;10.440;2023-07-29T15:33:10;29.00;56.60
32107;DHT22;18622;51.998;10.440;2023-07-29T15:35:39;28.70;58.20
32107;DHT22;18622;51.998;10.440;2023-07-29T15:38:07;28.60;58.50
32107;DHT22;18622;51.998;10.440;2023-07-29T15:40:34;29.10;59.20
32107;DHT22;18622;51.998;10.440;2023-07-29T15:43:02;30.30;56.70
32107;DHT22;18622;51.998;10.440;2023-07-29T15:45:30;31.30;54.60
32107;DHT22;18622;51.998;10.440;2023-07-29T15:47:58;32.30;55.20
32107;DHT22;18622;51.998;10.440;2023-07-29T15:50:26;33.30;51.80
32107;DHT22;18622;51.998;10.440;2023-07-29T15:52:53;33.90;52.70
32107;DHT22;18622;51.998;10.440;2023-07-29T15:55:22;33.70;51.40
32107;DHT22;18622;51.998;10.440;2023-07-29T15:57:50;33.40;51.30
32107;DHT22;18622;51.998;10.440;2023-07-29T16:00:18;33.10;50.50
32107;DHT22;18622;51.998;10.440;2023-07-29T16:02:46;32.50;50.50
32107;DHT22;18622;51.998;10.440;2023-07-29T16:05:14;31.50;52.70
32107;DHT22;18622;51.998;10.440;2023-07-29T16:07:42;30.80;53.60
32107;DHT22;18622;51.998;10.440;2023-07-29T16:10:10;30.80;55.40
32107;DHT22;18622;51.998;10.440;2023-07-29T16:15:15;30.70;54.90
32107;DHT22;18622;51.998;10.440;2023-07-29T16:17:43;30.30;55.70
32107;DHT22;18622;51.998;10.440;2023-07-29T16:20:12;29.90;55.80
32107;DHT22;18622;51.998;10.440;2023-07-29T16:22:40;29.50;57.10
32107;DHT22;18622;51.998;10.440;2023-07-29T16:25:08;29.00;56.80
32107;DHT22;18622;51.998;10.440;2023-07-29T16:27:36;28.70;56.50
32107;DHT22;18622;51.998;10.440;2023-07-29T16:30:06;28.50;56.00
32107;DHT22;18622;51.998;10.440;2023-07-29T16:32:34;28.30;57.20
32107;DHT22;18622;51.998;10.440;2023-07-29T16:35:02;28.20;58.00
32107;DHT22;18622;51.998;10.440;2023-07-29T16:37:29;28.10;57.60
32107;DHT22;18622;51.998;10.440;2023-07-29T16:39:57;28.00;58.60
32107;DHT22;18622;51.998;10.440;2023-07-29T16:42:25;27.90;57.90
32107;DHT22;18622;51.998;10.440;2023-07-29T16:44:53;27.60;58.50
32107;DHT22;18622;51.998;10.440;2023-07-29T16:47:21;27.20;58.90
32107;DHT22;18622;51.998;10.440;2023-07-29T16:49:50;27.00;60.30
32107;DHT22;18622;51.998;10.440;2023-07-29T16:52:18;26.80;60.70
32107;DHT22;18622;51.998;10.440;2023-07-29T16:54:46;26.60;60.80
32107;DHT22;18622;51.998;10.440;2023-07-29T16:57:14;26.40;61.70
32107;DHT22;18622;51.998;10.440;2023-07-29T16:59:41;26.10;62.00
32107;DHT22;18622;51.998;10.440;2023-07-29T17:02:09;25.90;63.10
32107;DHT22;18622;51.998;10.440;2023-07-29T17:04:37;25.70;64.70
32107;DHT22;18622;51.998;10.440;2023-07-29T17:07:05;25.60;64.80
32107;DHT22;18622;51.998;10.440;2023-07-29T17:09:33;25.50;66.10
32107;DHT22;18622;51.998;10.440;2023-07-29T17:12:00;25.50;65.90
32107;DHT22;18622;51.998;10.440;2023-07-29T17:14:28;25.50;65.40
32107;DHT22;18622;51.998;10.440;2023-07-29T17:16:56;25.30;66.20
32107;DHT22;18622;51.998;10.440;2023-07-29T17:19:24;25.30;67.50
32107;DHT22;18622;51.998;10.440;2023-07-29T17:21:52;25.40;67.70
32107;DHT22;18622;51.998;10.440;2023-07-29T17:24:20;25.90;66.30
32107;DHT22;18622;51.998;10.440;2023-07-29T17:26:48;26.20;64.90
32107;DHT22;18622;51.998;10.440;2023-07-29T17:29:15;26.40;64.20
32107;DHT22;18622;51.998;10.440;2023-07-29T17:31:43;26.40;64.50
32107;DHT22;18622;51.998;10.440;2023-07-29T17:34:12;26.50;64.40
32107;DHT22;18622;51.998;10.440;2023-07-29T17:36:39;26.40;64.80
32107;DHT22;18622;51.998;10.440;2023-07-29T17:39:07;26.40;65.60
32107;DHT22;18622;51.998;10.440;2023-07-29T17:41:35;26.40;64.80
32107;DHT22;18622;51.998;10.440;2023-07-29T17:44:03;26.20;66.10
32107;DHT22;18622;51.998;10.440;2023-07-29T17:46:37;26.10;66.00
32107;DHT22;18622;51.998;10.440;2023-07-29T17:49:04;26.00;66.80
32107;DHT22;18622;51.998;10.440;2023-07-29T17:51:32;25.80;66.30
32107;DHT22;18622;51.998;10.440;2023-07-29T17:54:00;25.70;67.20
32107;DHT22;18622;51.998;10.440;2023-07-29T17:56:28;25.50;66.50
32107;DHT22;18622;51.998;10.440;2023-07-29T17:58:56;25.40;67.40
32107;DHT22;18622;51.998;10.440;2023-07-29T18:01:23;25.40;67.80
32107;DHT22;18622;51.998;10.440;2023-07-29T18:03:51;25.40;68.10
32107;DHT22;18622;51.998;10.440;2023-07-29T18:06:19;25.30;68.10
32107;DHT22;18622;51.998;10.440;2023-07-29T18:08:47;25.30;69.20
32107;DHT22;18622;51.998;10.440;2023-07-29T18:11:15;25.20;69.40
32107;DHT22;18622;51.998;10.440;2023-07-29T18:13:44;25.10;69.60
32107;DHT22;18622;51.998;10.440;2023-07-29T18:16:11;25.00;69.70
32107;DHT22;18622;51.998;10.440;2023-07-29T18:18:41;24.70;70.40
32107;DHT22;18622;51.998;10.440;2023-07-29T18:21:09;24.60;71.40
32107;DHT22;18622;51.998;10.440;2023-07-29T18:23:36;24.50;72.00
32107;DHT22;18622;51.998;10.440;2023-07-29T18:26:04;24.40;72.70
32107;DHT22;18622;51.998;10.440;2023-07-29T18:28:32;24.20;73.20
32107;DHT22;18622;51.998;10.440;2023-07-29T18:31:00;24.10;73.60
32107;DHT22;18622;51.998;10.440;2023-07-29T18:33:28;24.00;74.70
32107;DHT22;18622;51.998;10.440;2023-07-29T18:35:55;23.80;75.50
32107;DHT22;18622;51.998;10.440;2023-07-29T18:38:23;23.50;75.20
32107;DHT22;18622;51.998;10.440;2023-07-29T18:40:51;23.30;75.80
32107;DHT22;18622;51.998;10.440;2023-07-29T18:43:19;23.10;76.10
32107;DHT22;18622;51.998;10.440;2023-07-29T18:45:47;22.90;76.20
32107;DHT22;18622;51.998;10.440;2023-07-29T18:48:15;22.70;76.10
32107;DHT22;18622;51.998;10.440;2023-07-29T18:50:43;22.70;76.50
32107;DHT22;18622;51.998;10.440;2023-07-29T18:53:11;22.40;76.30
32107;DHT22;18622;51.998;10.440;2023-07-29T18:55:39;22.40;76.50
32107;DHT22;18622;51.998;10.440;2023-07-29T18:58:07;22.20;77.00